createdAt,value
2023-04-16T00:00:49.793Z,7.60
2023-04-16T00:05:56.011Z,7.60
2023-04-16T00:10:59.068Z,7.60
2023-04-16T00:16:02.074Z,7.50
2023-04-16T00:21:05.524Z,7.40
2023-04-16T00:26:09.232Z,7.40
2023-04-16T00:31:12.277Z,7.20
2023-04-16T00:36:15.257Z,7.20
2023-04-16T00:41:18.287Z,7.10
2023-04-16T00:46:23.869Z,7.00
2023-04-16T00:51:27.172Z,6.80
2023-04-16T00:56:31.062Z,6.70
2023-04-16T01:01:34.043Z,6.60
2023-04-16T01:06:36.853Z,6.50
2023-04-16T01:11:39.897Z,6.40
2023-04-16T01:16:42.879Z,6.30
2023-04-16T01:21:46.742Z,6.30
2023-04-16T01:26:49.793Z,6.30
2023-04-16T01:31:52.829Z,6.20
2023-04-16T01:36:55.936Z,6.20
2023-04-16T01:41:58.820Z,6.20
2023-04-16T01:47:01.833Z,6.20
2023-04-16T01:52:05.092Z,6.20
2023-04-16T01:57:08.212Z,6.20
2023-04-16T02:02:14.852Z,6.20
2023-04-16T02:07:17.734Z,6.10
2023-04-16T02:12:20.923Z,6.10
2023-04-16T02:17:23.911Z,6.00
2023-04-16T02:22:26.839Z,6.00
2023-04-16T02:27:30.169Z,5.90
2023-04-16T02:32:33.292Z,5.90
2023-04-16T02:37:36.049Z,5.90
2023-04-16T02:42:38.935Z,6.00
2023-04-16T02:47:42.018Z,6.00
2023-04-16T02:52:45.052Z,6.00
2023-04-16T02:57:48.015Z,6.00
2023-04-16T03:02:51.245Z,6.00
2023-04-16T03:07:56.820Z,5.90
2023-04-16T03:13:00.407Z,5.90
2023-04-16T03:18:03.716Z,5.90
2023-04-16T03:23:06.706Z,5.80
2023-04-16T03:28:09.598Z,5.70
2023-04-16T03:33:12.541Z,5.70
2023-04-16T03:38:15.633Z,5.60
2023-04-16T03:43:18.649Z,5.70
2023-04-16T03:48:21.521Z,5.60
2023-04-16T03:53:24.563Z,5.70
2023-04-16T03:58:27.459Z,5.70
2023-04-16T04:03:30.760Z,5.70
2023-04-16T04:08:33.959Z,5.70
2023-04-16T04:13:36.904Z,5.70
2023-04-16T04:18:39.937Z,5.70
2023-04-16T04:23:43.791Z,5.70
2023-04-16T04:28:47.220Z,5.70
2023-04-16T04:33:50.145Z,5.80
2023-04-16T04:38:53.056Z,5.90
2023-04-16T04:43:55.850Z,5.90
2023-04-16T04:48:58.829Z,6.00
2023-04-16T04:54:01.868Z,6.20
2023-04-16T04:59:04.869Z,6.50
2023-04-16T05:04:07.893Z,6.70
2023-04-16T05:09:13.966Z,6.80
2023-04-16T05:14:17.288Z,7.00
2023-04-16T05:19:20.607Z,7.10
2023-04-16T05:24:23.588Z,7.10
2023-04-16T05:29:26.627Z,7.10
2023-04-16T05:34:29.600Z,7.10
2023-04-16T05:39:32.564Z,7.20
2023-04-16T05:44:35.562Z,7.20
2023-04-16T05:49:38.476Z,7.20
2023-04-16T05:54:41.491Z,7.30
2023-04-16T05:59:44.523Z,7.40
2023-04-16T06:04:47.478Z,7.60
2023-04-16T06:09:50.507Z,7.70
2023-04-16T06:14:53.540Z,7.90
2023-04-16T06:19:56.490Z,8.00
2023-04-16T06:24:59.418Z,8.10
2023-04-16T06:30:02.323Z,8.10
2023-04-16T06:35:06.345Z,8.20
2023-04-16T06:40:10.303Z,8.30
2023-04-16T06:45:13.748Z,8.40
2023-04-16T06:50:16.815Z,8.40
2023-04-16T06:55:19.594Z,8.50
2023-04-16T07:00:22.503Z,8.60
2023-04-16T07:05:26.221Z,8.70
2023-04-16T07:10:29.354Z,9.00
2023-04-16T07:15:32.896Z,9.30
2023-04-16T07:20:36.366Z,9.60
2023-04-16T07:25:40.172Z,9.90
2023-04-16T07:30:43.842Z,10.20
2023-04-16T07:35:47.460Z,10.50
2023-04-16T07:40:50.652Z,10.80
2023-04-16T07:45:53.622Z,11.20
2023-04-16T07:50:56.950Z,11.80
2023-04-16T07:56:00.164Z,12.00
2023-04-16T08:01:03.244Z,12.20
2023-04-16T08:06:06.787Z,12.40
2023-04-16T08:11:09.954Z,12.70
2023-04-16T08:16:12.863Z,13.10
2023-04-16T08:21:16.033Z,13.40
2023-04-16T08:26:18.980Z,13.50
2023-04-16T08:31:22.391Z,13.70
2023-04-16T08:36:25.745Z,13.90
2023-04-16T08:41:32.324Z,14.00
2023-04-16T08:46:38.749Z,14.20
2023-04-16T08:51:44.452Z,14.50
2023-04-16T08:56:49.325Z,14.90
2023-04-16T09:01:57.712Z,15.30
2023-04-16T09:07:02.436Z,15.60
2023-04-16T09:12:05.721Z,15.90
2023-04-16T09:17:09.925Z,16.10
2023-04-16T09:22:13.100Z,16.40
2023-04-16T09:27:17.115Z,16.50
2023-04-16T09:32:27.400Z,16.70
2023-04-16T09:37:31.176Z,17.00
2023-04-16T09:42:37.242Z,17.20
2023-04-16T09:47:45.964Z,17.30
2023-04-16T09:52:53.564Z,17.10
2023-04-16T09:58:01.449Z,16.90
2023-04-16T10:03:07.192Z,16.60
2023-04-16T10:08:14.675Z,16.30
2023-04-16T10:13:19.204Z,16.00
2023-04-16T10:18:23.300Z,15.90
2023-04-16T10:23:27.216Z,15.80
2023-04-16T10:28:31.157Z,15.80
2023-04-16T10:33:37.316Z,15.80
2023-04-16T10:38:49.830Z,15.80
2023-04-16T10:43:54.136Z,16.00
2023-04-16T10:49:12.793Z,16.00
2023-04-16T10:54:21.387Z,16.10
2023-04-16T10:59:25.769Z,16.10
2023-04-16T11:04:34.492Z,16.20
2023-04-16T11:09:59.957Z,16.40
2023-04-16T11:15:08.987Z,16.80
2023-04-16T11:20:28.739Z,17.20
2023-04-16T11:25:34.043Z,17.50
2023-04-16T11:30:39.066Z,18.00
2023-04-16T11:35:43.440Z,18.70
2023-04-16T11:40:49.928Z,19.40
2023-04-16T11:46:12.928Z,20.10
2023-04-16T11:51:24.003Z,20.40
2023-04-16T11:56:33.231Z,20.30
2023-04-16T12:01:38.108Z,20.10
2023-04-16T12:06:41.299Z,19.90
2023-04-16T12:11:44.596Z,19.60
2023-04-16T12:16:47.848Z,19.70
2023-04-16T12:21:51.282Z,19.60
2023-04-16T12:27:03.242Z,19.50
2023-04-16T12:32:23.377Z,19.40
2023-04-16T12:37:26.798Z,19.40
2023-04-16T12:42:35.656Z,19.70
2023-04-16T12:47:38.621Z,20.10
2023-04-16T12:52:41.742Z,20.10
2023-04-16T12:57:45.056Z,19.70
2023-04-16T13:02:48.270Z,19.30
2023-04-16T13:07:51.500Z,18.90
2023-04-16T13:12:54.448Z,18.70
2023-04-16T13:17:57.371Z,18.50
2023-04-16T13:23:01.052Z,18.40
2023-04-16T13:28:04.012Z,18.40
2023-04-16T13:33:06.979Z,18.60
2023-04-16T13:38:10.182Z,18.60
2023-04-16T13:43:14.052Z,18.90
2023-04-16T13:48:17.946Z,19.30
2023-04-16T13:53:22.026Z,19.50
2023-04-16T13:58:25.288Z,19.50
2023-04-16T14:03:28.974Z,19.60
2023-04-16T14:08:32.349Z,19.60
2023-04-16T14:13:35.363Z,19.50
2023-04-16T14:18:42.454Z,19.30
2023-04-16T14:23:45.599Z,19.20
2023-04-16T14:28:48.599Z,19.10
2023-04-16T14:33:51.634Z,19.10
2023-04-16T14:38:54.624Z,19.20
2023-04-16T14:43:59.298Z,19.20
2023-04-16T14:49:02.289Z,19.10
2023-04-16T14:54:05.384Z,18.90
2023-04-16T14:59:08.436Z,18.80
2023-04-16T15:04:11.846Z,18.90
2023-04-16T15:09:14.840Z,18.90
2023-04-16T15:14:18.410Z,18.90
2023-04-16T15:19:21.586Z,18.80
2023-04-16T15:24:26.223Z,18.70
2023-04-16T15:29:30.434Z,18.50
2023-04-16T15:34:33.379Z,18.40
2023-04-16T15:39:36.389Z,18.20
2023-04-16T15:44:39.406Z,18.20
2023-04-16T15:49:42.499Z,18.20
2023-04-16T15:54:45.875Z,18.30
2023-04-16T15:59:59.583Z,18.40
2023-04-16T16:05:12.124Z,18.30
2023-04-16T16:10:15.292Z,18.30
2023-04-16T16:15:18.343Z,18.20
2023-04-16T16:20:22.743Z,18.20
2023-04-16T16:25:25.610Z,18.10
2023-04-16T16:30:28.353Z,18.00
2023-04-16T16:35:31.879Z,17.80
2023-04-16T16:40:34.769Z,17.70
2023-04-16T16:45:38.448Z,17.70
2023-04-16T16:50:41.206Z,17.60
2023-04-16T16:55:44.205Z,17.30
2023-04-16T17:00:47.160Z,17.00
2023-04-16T17:05:50.393Z,16.70
2023-04-16T17:10:53.300Z,16.40
2023-04-16T17:15:56.255Z,16.20
2023-04-16T17:20:59.220Z,16.10
2023-04-16T17:26:03.258Z,15.80
2023-04-16T17:31:08.525Z,15.60
2023-04-16T17:36:11.535Z,15.40
2023-04-16T17:41:14.545Z,15.10
2023-04-16T17:46:17.577Z,15.00
2023-04-16T17:51:20.565Z,14.80
2023-04-16T17:56:23.784Z,14.70
2023-04-16T18:01:27.605Z,14.60
2023-04-16T18:06:30.996Z,14.50
2023-04-16T18:11:34.119Z,14.40
2023-04-16T18:16:37.073Z,14.30
2023-04-16T18:21:40.000Z,14.20
2023-04-16T18:26:45.705Z,14.20
2023-04-16T18:31:50.740Z,14.10
2023-04-16T18:36:53.756Z,14.10
2023-04-16T18:41:57.644Z,14.10
2023-04-16T18:47:00.694Z,14.10
2023-04-16T18:52:03.674Z,14.10
2023-04-16T18:57:06.900Z,14.00
2023-04-16T19:02:10.088Z,14.00
2023-04-16T19:07:13.179Z,14.00
2023-04-16T19:12:16.230Z,14.00
2023-04-16T19:17:19.208Z,14.00
2023-04-16T19:22:22.125Z,14.00
2023-04-16T19:27:28.469Z,13.90
2023-04-16T19:32:32.037Z,13.90
2023-04-16T19:37:35.101Z,13.90
2023-04-16T19:42:38.096Z,13.90
2023-04-16T19:47:41.187Z,13.90
2023-04-16T19:52:44.308Z,13.80
2023-04-16T19:57:48.387Z,13.70
2023-04-16T20:02:51.480Z,13.70
2023-04-16T20:07:55.897Z,13.70
2023-04-16T20:13:00.425Z,13.80
2023-04-16T20:18:04.120Z,14.00
2023-04-16T20:23:07.076Z,14.10
2023-04-16T20:28:10.261Z,14.10
2023-04-16T20:33:13.173Z,14.20
2023-04-16T20:38:16.279Z,14.20
2023-04-16T20:43:19.320Z,14.30
2023-04-16T20:48:22.372Z,14.30
2023-04-16T20:53:25.409Z,14.20
2023-04-16T20:58:28.975Z,14.10
2023-04-16T21:03:32.138Z,14.10
2023-04-16T21:08:35.515Z,14.00
2023-04-16T21:13:38.451Z,13.90
2023-04-16T21:18:41.614Z,13.90
2023-04-16T21:23:44.622Z,13.90
2023-04-16T21:28:48.393Z,13.80
2023-04-16T21:33:51.412Z,13.70
2023-04-16T21:38:54.519Z,13.60
2023-04-16T21:43:57.489Z,13.60
2023-04-16T21:49:00.811Z,13.60
2023-04-16T21:54:03.865Z,13.70
2023-04-16T21:59:06.727Z,13.70
2023-04-16T22:04:10.044Z,13.80
2023-04-16T22:09:13.352Z,13.80
2023-04-16T22:14:17.797Z,13.70
2023-04-16T22:19:21.729Z,13.80
2023-04-16T22:24:24.794Z,13.80
2023-04-16T22:29:27.570Z,13.80
2023-04-16T22:34:30.607Z,13.80
2023-04-16T22:39:34.205Z,13.90
2023-04-16T22:44:37.240Z,14.00
2023-04-16T22:49:40.165Z,14.10
2023-04-16T22:54:43.096Z,14.10
2023-04-16T22:59:46.326Z,14.10
2023-04-16T23:04:49.327Z,14.10
2023-04-16T23:09:52.294Z,14.10
2023-04-16T23:14:55.295Z,14.00
2023-04-16T23:19:58.366Z,13.90
2023-04-16T23:25:01.440Z,13.90
2023-04-16T23:30:05.876Z,13.80
2023-04-16T23:35:11.140Z,13.80
2023-04-16T23:40:14.261Z,13.80
2023-04-16T23:45:17.212Z,13.70
2023-04-16T23:50:20.163Z,13.70
2023-04-16T23:55:23.358Z,13.70
